ADDS METAR Data INFO
IDs: Format: Raw Decoded Include TAF

Data at: 1949 UTC 14 Aug 2018

KBDU 141936Z AUTO 11007KT 10SM CLR 27/11 A3010 RMK AO2
KBDU 141912Z AUTO 07009KT 10SM CLR 27/12 A3011 RMK AO2 LTG DSNT SW
KBDU 141854Z AUTO 06006KT 10SM SCT048 25/11 A3012 RMK AO2
KBDU 141836Z AUTO 09005KT 10SM SCT048 27/11 A3012 RMK AO2 LTG DSNT NE
KBDU 141812Z AUTO 14005KT 10SM CLR 26/10 A3014 RMK AO2
KBDU 141754Z AUTO 08003KT 10SM CLR 26/11 A3014 RMK AO2
KBDU 141736Z AUTO 11006KT 10SM CLR 25/11 A3015 RMK AO2
KBDU 141712Z AUTO 08003KT 10SM CLR 25/11 A3015 RMK AO2
KBDU 141654Z AUTO 10003KT 10SM CLR 24/11 A3015 RMK AO2
KBDU 141636Z AUTO 07004KT 10SM CLR 23/11 A3015 RMK AO2
KBDU 141612Z AUTO 00000KT 10SM CLR 22/12 A3015 RMK AO2
KBDU 141554Z AUTO 00000KT 10SM CLR 21/13 A3015 RMK AO2
KBDU 141536Z AUTO 27003KT 10SM CLR 20/13 A3015 RMK AO2
KBDU 141512Z AUTO 00000KT 10SM CLR 18/14 A3015 RMK AO2
KBDU 141454Z AUTO 00000KT 10SM CLR 18/15 A3015 RMK AO2
KBDU 141436Z AUTO 05003KT 10SM CLR 17/15 A3015 RMK AO2
KBDU 141412Z AUTO 04005KT 10SM SCT005 17/14 A3015 RMK AO2
KBDU 141354Z AUTO 35004KT 10SM BKN005 16/13 A3015 RMK AO2
KBDU 141336Z AUTO 00000KT 10SM BKN007 17/13 A3014 RMK AO2
KBDU 141312Z AUTO 00000KT 10SM CLR 16/11 A3014 RMK AO2
KBDU 141254Z AUTO 00000KT 10SM CLR 15/10 A3013 RMK AO2
KBDU 141236Z AUTO 00000KT 10SM CLR 15/08 A3011 RMK AO2
KBDU 141212Z AUTO 23003KT 10SM CLR 15/08 A3010 RMK AO2
KBDU 141154Z AUTO 00000KT 10SM CLR 15/08 A3010 RMK AO2
KBDU 141136Z AUTO 00000KT 10SM CLR 15/10 A3009 RMK AO2
KBDU 141112Z AUTO 00000KT 10SM CLR 16/11 A3010 RMK AO2
KBDU 141054Z AUTO 00000KT 10SM CLR 16/11 A3010 RMK AO2
KBDU 141036Z AUTO 35004KT 10SM CLR 16/12 A3010 RMK AO2
KBDU 141012Z AUTO 00000KT 10SM CLR 17/12 A3010 RMK AO2
KBDU 140954Z AUTO 00000KT 10SM CLR 17/12 A3010 RMK AO2
KBDU 140936Z AUTO 00000KT 10SM CLR 17/12 A3010 RMK AO2
KBDU 140912Z AUTO 28003KT 10SM CLR 17/11 A3010 RMK AO2
KBDU 140854Z AUTO 00000KT 10SM CLR 17/10 A3011 RMK AO2
KBDU 140836Z AUTO 00000KT 10SM CLR 17/08 A3010 RMK AO2
KBDU 140812Z AUTO 00000KT 10SM CLR 18/08 A3009 RMK AO2
KBDU 140754Z AUTO 29003KT 10SM CLR 19/08 A3010 RMK AO2
KBDU 140736Z AUTO 00000KT 10SM CLR 19/08 A3010 RMK AO2
KBDU 140712Z AUTO 00000KT 10SM CLR 19/08 A3010 RMK AO2
KBDU 140654Z AUTO 00000KT 10SM CLR 20/07 A3010 RMK AO2 LTG DSNT SE
KBDU 140636Z AUTO 00000KT 10SM CLR 18/07 A3010 RMK AO2
KBDU 140612Z AUTO 29004KT 10SM CLR 20/05 A3010 RMK AO2
KBDU 140553Z AUTO 00000KT 10SM CLR 21/05 A3009 RMK AO2
KBDU 140536Z AUTO 33005KT 10SM CLR 20/05 A3009 RMK AO2
KBDU 140512Z AUTO 31004KT 10SM CLR 20/06 A3010 RMK AO2
KBDU 140454Z AUTO 00000KT 10SM CLR 20/06 A3009 RMK AO2
KBDU 140436Z AUTO 00000KT 10SM CLR 22/06 A3009 RMK AO2
KBDU 140412Z AUTO 00000KT 10SM CLR 22/08 A3008 RMK AO2
KBDU 140354Z AUTO 00000KT 10SM CLR 23/05 A3008 RMK AO2
KBDU 140336Z AUTO 00000KT 10SM CLR 23/05 A3008 RMK AO2
KBDU 140312Z AUTO 22004KT 10SM CLR 23/05 A3008 RMK AO2
KBDU 140254Z AUTO 26003KT 10SM CLR 23/06 A3007 RMK AO2
KBDU 140236Z AUTO 27004KT 10SM CLR 24/06 A3007 RMK AO2
KBDU 140212Z AUTO 00000KT 10SM CLR 24/06 A3006 RMK AO2
KBDU 140154Z AUTO 27003KT 10SM CLR 25/06 A3005 RMK AO2
KBDU 140136Z AUTO 32004KT 10SM CLR 25/05 A3004 RMK AO2
KBDU 140112Z AUTO 00000KT 10SM CLR 26/05 A3004 RMK AO2
KBDU 140057Z AUTO 35004KT 10SM CLR 27/05 A3004 RMK AO2
KBDU 140033Z AUTO 32003KT 10SM CLR 27/05 A3004 RMK AO2
KBDU 140015Z AUTO 30003KT 10SM CLR 27/05 A3004 RMK AO2
KBDU 132354Z AUTO 31003KT 10SM CLR 29/03 A3004 RMK AO2
KBDU 132336Z AUTO 31003KT 10SM CLR 30/05 A3003 RMK AO2
KBDU 132312Z AUTO 33003KT 10SM CLR 29/06 A3003 RMK AO2
KBDU 132254Z AUTO 00000KT 10SM CLR 30/06 A3003 RMK AO2
KBDU 132236Z AUTO 29004KT 10SM CLR 30/06 A3003 RMK AO2
KBDU 132212Z AUTO 06004KT 10SM CLR 29/06 A3004 RMK AO2
KBDU 132154Z AUTO 00000KT 10SM CLR 30/06 A3004 RMK AO2
KBDU 132136Z AUTO 05004KT 10SM CLR 30/06 A3004 RMK AO2
KBDU 132112Z AUTO 00000KT 10SM CLR 30/07 A3005 RMK AO2
KBDU 132054Z AUTO 00000KT 7SM CLR 28/08 A3005 RMK AO2
KBDU 132036Z AUTO 00000KT 10SM CLR 29/08 A3006 RMK AO2
KBDU 132012Z AUTO 00000KT 10SM CLR 28/07 A3007 RMK AO2
KBDU 131954Z AUTO 05004KT 10SM CLR 28/07 A3007 RMK AO2
KBDU 131936Z AUTO 06004KT 10SM CLR 28/07 A3007 RMK AO2
KBDU 131912Z AUTO 00000KT 10SM CLR 27/08 A3007 RMK AO2
KBDU 131854Z AUTO 28004KT 10SM CLR 26/08 A3008 RMK AO2
KBDU 131836Z AUTO 36003KT 10SM CLR 26/08 A3008 RMK AO2
KBDU 131812Z AUTO 05004KT 10SM CLR 26/07 A3009 RMK AO2
KBDU 131753Z AUTO 36004KT 10SM CLR 25/07 A3009 RMK AO2
KBDU 131735Z AUTO 04005KT 10SM CLR 24/06 A3009 RMK AO2
KBDU 131712Z AUTO 05006KT 10SM CLR 24/05 A3009 RMK AO2
KBDU 131654Z AUTO 02006KT 10SM CLR 23/06 A3008 RMK AO2
KBDU 131636Z AUTO 00000KT 10SM CLR 22/07 A3008 RMK AO2
KBDU 131612Z AUTO 00000KT 10SM CLR 22/07 A3008 RMK AO2
KBDU 131554Z AUTO 00000KT 10SM CLR 21/07 A3008 RMK AO2
KBDU 131536Z AUTO 06004KT 10SM CLR 20/08 A3008 RMK AO2
KBDU 131512Z AUTO 00000KT 10SM CLR 19/07 A3007 RMK AO2
KBDU 131453Z AUTO 10003KT 10SM CLR 18/07 A3007 RMK AO2
KBDU 131435Z AUTO 00000KT 10SM CLR 17/08 A3007 RMK AO2
KBDU 131417Z AUTO 00000KT 10SM CLR 17/07 A3008 RMK AO2
KBDU 131354Z AUTO 14003KT 10SM CLR 16/08 A3008 RMK AO2
KBDU 131336Z AUTO 15003KT 10SM CLR 15/07 A3008 RMK AO2
KBDU 131312Z AUTO 17004KT 10SM CLR 13/07 A3008 RMK AO2
KBDU 131254Z AUTO 18003KT 10SM CLR 14/06 A3008 RMK AO2
KBDU 131236Z AUTO 00000KT 10SM CLR 14/06 A3007 RMK AO2
KBDU 131212Z AUTO 00000KT 10SM CLR 13/06 A3007 RMK AO2
KBDU 131154Z AUTO 00000KT 10SM CLR 13/06 A3006 RMK AO2
KBDU 131136Z AUTO 00000KT 10SM CLR 13/06 A3006 RMK AO2
KBDU 131112Z AUTO 00000KT 10SM CLR 14/06 A3005 RMK AO2
KBDU 131054Z AUTO 00000KT 10SM CLR 13/07 A3005 RMK AO2
KBDU 131036Z AUTO 17004KT 10SM CLR 15/06 A3005 RMK AO2
KBDU 131012Z AUTO 17003KT 10SM CLR 15/07 A3005 RMK AO2
KBDU 130954Z AUTO 00000KT 10SM CLR 16/08 A3005 RMK AO2
KBDU 130936Z AUTO 35004KT 10SM CLR 17/05 A3005 RMK AO2
KBDU 130912Z AUTO 00000KT 10SM CLR 17/06 A3005 RMK AO2
KBDU 130854Z AUTO 00000KT 10SM CLR 17/06 A3005 RMK AO2
KBDU 130836Z AUTO 00000KT 10SM CLR 17/07 A3005 RMK AO2
KBDU 130812Z AUTO 00000KT 10SM CLR 16/06 A3005 RMK AO2
KBDU 130754Z AUTO 36006KT 10SM CLR 16/06 A3006 RMK AO2